Station: Cairns Racecourse  

  Atmospheric Gas Attenuation - ITU Rec 676-11   ----------------- dB/100km -----------------
Date Time Temp RH % AH g/m3 Dew Point Wind Direction Speed kph Gust kph Barometer mB Rainfall Since 9am 24GHz 47GHz 76GHz 122GHz 134GHz 241GHz
10/05 04:10 23.7 89 19.04 21.8 15 22 1014.9 0 41.2 40.8 78.8 208.5 229.6 797.4
10/05 04:00 23.7 88 18.82 21.6 20 30 1015 0 40.7 40.4 77.8 205.7 226.2 785.4
10/05 03:50 23.9 87 18.82 21.6 24 28 1015 0 40.7 40.3 77.6 205.2 225.6 783.3
10/05 03:40 24.1 86 18.82 21.6 22 28 1015.1 0 40.7 40.2 77.4 204.6 225.0 781.3
10/05 03:30 24.1 86 18.82 21.6 20 32 1015.1 0 40.7 40.2 77.4 204.6 225.0 781.3
10/05 03:20 24 87 18.93 21.7 19 28 1015.1 0 40.9 40.5 78.0 206.3 227.0 788.3
10/05 03:10 24 86 18.71 21.5 15 20 1015.1 0 40.4 40.0 77.0 203.5 223.6 776.4
10/05 03:00 23.9 87 18.82 21.6 17 33 1015.2 0 40.7 40.3 77.6 205.2 225.6 783.4
10/05 02:50 23.6 89 18.93 21.7 15 17 1015.1 0 40.9 40.7 78.4 207.4 228.2 792.5
10/05 02:40 23.6 88 18.72 21.5 15 19 1015.2 0 40.5 40.3 77.4 204.7 224.9 781.1
10/05 02:30 23.9 87 18.82 21.6 17 28 1015.4 0 40.7 40.3 77.6 205.2 225.6 783.6
10/05 02:20 23.7 88 18.82 21.6 11 15 1015.4 0 40.7 40.4 77.8 205.8 226.2 785.6
10/05 02:10 23.7 88 18.82 21.6 15 19 1015.3 0 40.7 40.4 77.8 205.8 226.2 785.6
10/05 02:00 23.7 87 18.61 21.4 13 20 1015.5 0 40.3 40.0 76.8 203.1 223.0 774.3
10/05 01:50 23.9 86 18.6 21.4 15 20 1015.5 0 40.2 39.9 76.6 202.5 222.2 771.7
10/05 01:40 23.7 87 18.61 21.4 20 26 1015.5 0 40.3 40.0 76.8 203.1 223.0 774.3
10/05 01:30 23.7 87 18.61 21.4 17 24 1015.8 0 40.2 40.0 76.8 203.2 223.0 774.4
10/05 01:20 23.7 87 18.61 21.4 13 17 1015.9 0 40.2 40.0 76.8 203.2 223.0 774.5
10/05 01:10 23.7 87 18.61 21.4 22 30 1016 0 40.2 40.0 76.8 203.2 223.0 774.5
10/05 01:00 23.7 86 18.39 21.2 13 22 1016.4 0 39.8 39.6 75.8 200.5 219.7 762.8
10/05 00:50 23.5 87 18.4 21.2 13 17 1016.4 0 39.8 39.8 76.1 201.1 220.4 765.4
10/05 00:40 23.5 87 18.4 21.2 13 17 1016.5 0 39.8 39.8 76.1 201.1 220.4 765.4
10/05 00:30 23.4 88 18.5 21.3 11 19 1016.7 0 40.0 40.0 76.7 202.7 222.3 772.0
10/05 00:20 23.2 88 18.29 21.1 13 15 1016.6 0 39.6 39.7 75.9 200.6 219.6 762.6
10/05 00:10 23.3 88 18.4 21.2 13 17 1016.6 0 39.8 39.9 76.3 201.7 221.1 767.5
10/05 00:00 23.4 87 18.29 21.1 13 20 1016.8 0 39.6 39.6 75.7 200.1 219.1 760.7
09/05 23:50 23.5 86 18.19 21 15 20 1016.7 0 39.4 39.4 75.1 198.5 217.2 754.2
09/05 23:40 23.5 86 18.19 21 15 20 1016.6 0 39.4 39.4 75.1 198.5 217.2 754.2
09/05 23:30 23.3 87 18.19 21 15 22 1016.6 0 39.4 39.5 75.3 199.0 217.8 756.2
09/05 23:20 23.5 86 18.19 21 20 26 1016.7 0 39.4 39.4 75.1 198.5 217.2 754.2
09/05 23:10 23.1 86 17.78 20.6 13 17 1016.7 0 38.5 38.8 73.5 194.4 212.0 736.1
09/05 23:00 23.2 86 17.88 20.7 15 22 1016.9 0 38.7 38.9 73.9 195.4 213.3 740.6
09/05 22:50 23.3 85 17.77 20.6 13 20 1016.7 0 38.5 38.7 73.3 193.8 211.3 733.6
09/05 22:40 23.2 85 17.67 20.5 15 19 1016.8 0 38.3 38.5 72.9 192.8 210.1 729.3
09/05 22:30 23.2 85 17.67 20.5 17 28 1016.9 0 38.3 38.5 72.9 192.8 210.1 729.4
09/05 22:20 23.3 84 17.56 20.4 15 20 1016.9 0 38.0 38.3 72.3 191.2 208.1 722.5
09/05 22:10 23.2 84 17.46 20.3 15 19 1016.9 0 37.8 38.1 71.9 190.2 206.9 718.2
09/05 22:00 23.2 83 17.25 20.2 17 22 1017.1 0 37.4 37.7 71.0 187.6 203.7 707.1
09/05 21:50 23.2 83 17.25 20.2 13 17 1017.1 0 37.4 37.7 71.0 187.6 203.7 707.1
09/05 21:40 23.2 83 17.25 20.2 15 20 1017.1 0 37.4 37.7 71.0 187.6 203.7 707.1
09/05 21:30 23.2 82 17.05 20 15 24 1017.3 0 37.0 37.4 70.1 185.2 200.7 696.7
09/05 21:20 23.3 81 16.93 19.9 11 13 1017.2 0 36.7 37.1 69.4 183.4 198.6 689.4
09/05 21:10 23.2 81 16.84 19.8 17 24 1017.2 0 36.5 37.0 69.1 182.6 197.5 685.6
09/05 21:00 23.3 80 16.73 19.7 17 24 1017.3 0 36.3 36.7 68.5 181.0 195.6 679.1
09/05 20:50 23.4 78 16.4 19.3 17 24 1017.1 0 35.6 36.1 66.9 176.8 190.4 661.0
09/05 20:40 23.4 78 16.4 19.3 17 24 1017.1 0 35.6 36.1 66.9 176.8 190.4 661.0
09/05 20:30 23.4 78 16.4 19.3 17 30 1017 0 35.6 36.1 66.9 176.7 190.4 661.0
09/05 20:20 23.4 78 16.4 19.3 13 15 1017 0 35.6 36.1 66.9 176.7 190.4 661.0
09/05 20:10 23.4 78 16.4 19.3 15 19 1016.9 0 35.6 36.1 66.9 176.7 190.4 660.9
09/05 20:00 23.3 77 16.1 19 17 28 1017 0 34.9 35.6 65.6 173.4 186.3 646.4
09/05 19:50 23.4 76 15.98 18.9 19 22 1016.8 0 34.7 35.3 65.0 171.7 184.2 639.3
09/05 19:40 23.4 75 15.77 18.7 17 22 1016.8 0 34.2 34.9 64.1 169.2 181.2 628.7
09/05 19:30 23.5 74 15.65 18.6 15 22 1016.9 0 34.0 34.7 63.4 167.6 179.2 621.9
09/05 19:20 23.5 74 15.65 18.6 15 20 1016.5 0 34.0 34.7 63.4 167.5 179.1 621.7
09/05 19:10 23.4 75 15.77 18.7 15 22 1016.3 0 34.2 34.9 64.0 169.1 181.1 628.5
09/05 19:00 23.3 76 15.89 18.8 17 26 1016.2 0 34.5 35.2 64.6 170.8 183.1 635.3
09/05 18:50 23.4 75 15.77 18.7 11 15 1016.1 0 34.2 34.9 64.0 169.1 181.1 628.4
09/05 18:40 23.4 75 15.77 18.7 19 24 1016 0 34.2 34.9 64.0 169.1 181.1 628.3
09/05 18:30 23.3 76 15.89 18.8 15 22 1016.1 0 34.5 35.2 64.6 170.7 183.1 635.3
09/05 18:20 23.4 75 15.77 18.7 17 19 1016.1 0 34.2 34.9 64.0 169.1 181.1 628.4
09/05 18:10 23.6 73 15.53 18.5 19 24 1016.2 0 33.7 34.4 62.8 165.9 177.1 614.7
09/05 18:00 23.6 73 15.53 18.5 17 26 1016.2 0 33.7 34.4 62.8 165.9 177.1 614.7
09/05 17:50 23.6 73 15.53 18.5 17 20 1016.1 0 33.7 34.4 62.8 165.8 177.1 614.7
09/05 17:40 23.7 73 15.61 18.6 17 19 1015.9 0 33.9 34.5 63.1 166.5 178.0 617.8
09/05 17:30 23.8 72 15.49 18.4 20 35 1015.7 0 33.6 34.2 62.4 164.9 176.0 610.9
09/05 17:20 24 71 15.45 18.4 22 30 1015.5 0 33.5 34.1 62.1 164.0 175.0 607.2
09/05 17:10 24 71 15.45 18.4 20 30 1015.5 0 33.5 34.1 62.1 164.0 175.0 607.2
09/05 17:00 23.9 72 15.58 18.5 22 33 1015.4 0 33.8 34.3 62.7 165.7 177.1 614.5
09/05 16:50 24.1 71 15.53 18.5 19 32 1015.3 0 33.7 34.2 62.3 164.7 175.9 610.3
09/05 16:40 24.1 71 15.53 18.5 19 24 1015.1 0 33.7 34.2 62.3 164.6 175.8 610.2
09/05 16:30 24.2 70 15.4 18.4 20 32 1015.2 0 33.4 33.9 61.7 162.9 173.8 603.0
09/05 16:20 24.3 70 15.49 18.5 20 30 1015 0 33.6 34.0 62.0 163.7 174.8 606.6
09/05 16:10 24.5 69 15.44 18.4 20 28 1014.9 0 33.4 33.8 61.6 162.7 173.6 602.5
09/05 16:00 24.6 70 15.75 18.8 22 39 1014.9 0 34.1 34.3 62.9 166.1 177.8 617.1
09/05 15:50 24.6 71 15.98 19 17 22 1014.6 0 34.6 34.7 63.9 168.7 181.0 628.4
09/05 15:40 24.8 70 15.93 19 17 22 1014.6 0 34.5 34.6 63.5 167.7 179.8 624.3
09/05 15:30 24.9 71 16.25 19.3 20 32 1014.6 0 35.1 35.1 64.8 171.2 184.2 639.5
09/05 15:20 25.1 73 16.9 19.9 13 19 1014.4 0 36.5 36.2 67.5 178.4 193.1 670.5
09/05 15:10 25 71 16.34 19.4 24 32 1014.4 0 35.3 35.2 65.1 172.0 185.2 643.1
09/05 15:00 25.1 72 16.67 19.7 19 28 1014.4 0 36.0 35.8 66.5 175.7 189.8 658.9
09/05 14:50 25.2 72 16.76 19.8 22 32 1014.4 0 36.2 35.9 66.8 176.5 190.8 662.5
09/05 14:40 25.4 72 16.95 20 22 30 1014.4 0 36.6 36.1 67.5 178.3 193.1 670.4
09/05 14:30 25.7 73 17.48 20.5 20 30 1014.5 0 37.7 37.0 69.6 183.9 200.1 694.8
09/05 14:20 25.7 71 17 20 19 26 1014.4 0 36.6 36.1 67.4 178.2 193.0 670.3
09/05 14:10 26.1 70 17.14 20.2 17 22 1014.5 0 36.9 36.2 67.7 178.9 194.1 674.0
09/05 14:00 25.8 70 16.85 19.9 22 32 1014.7 0 36.3 35.8 66.7 176.3 190.6 662.0
09/05 13:50 25.7 71 17 20 24 28 1014.6 0 36.6 36.1 67.4 178.2 193.1 670.4
09/05 13:40 25.7 70 16.76 19.8 24 35 1014.7 0 36.1 35.7 66.4 175.4 189.6 658.4
09/05 13:30 25.7 71 17 20 20 32 1015 0 36.6 36.1 67.5 178.3 193.1 670.6
09/05 13:20 25.6 72 17.14 20.2 20 24 1015 0 36.9 36.4 68.2 180.2 195.4 678.6
09/05 13:10 25.6 73 17.38 20.4 20 28 1015 0 37.5 36.8 69.2 183.1 198.9 690.9
09/05 13:00 25.9 74 17.92 20.9 17 35 1015.3 0 38.6 37.7 71.4 188.9 206.1 716.0
09/05 12:50 25.7 71 17 20 20 28 1015.3 0 36.6 36.1 67.5 178.3 193.2 670.8
09/05 12:40 25.7 73 17.48 20.5 17 24 1015.4 0 37.7 37.0 69.6 184.1 200.2 695.3
09/05 12:30 25.7 71 17 20 26 39 1015.6 0 36.6 36.1 67.5 178.4 193.2 670.9
09/05 12:20 26 69 16.8 19.9 32 39 1015.5 0 36.2 35.7 66.3 175.3 189.5 658.2
09/05 12:10 26.2 71 17.48 20.7 20 26 1015.6 0 37.6 36.8 69.2 182.9 198.9 690.8
09/05 12:00 26.2 69 16.99 20.1 26 39 1015.8 0 36.6 35.9 67.0 177.1 191.8 666.1
09/05 11:50 26.4 69 17.18 20.3 20 30 1015.7 0 37.0 36.2 67.7 178.9 194.0 673.9
09/05 11:40 26.5 71 17.77 20.8 26 37 1015.8 0 38.2 37.2 70.2 185.7 202.4 703.0

Last Refresh: 10-May-2026 03:45:01

Bureau of Meteorology